Brora, United Kingdom
Current Conditions -  °F | °C
As of 5:50 AM on Sunday 21 Dec 2014 (Local Time) from EGQK Reporting Station
Broken Clouds Broken Clouds  
Wind Chill: 42°   Ceiling: 10000
Heat Index: 48°   Visibility: 6mi
Dew Point: 41°   Wind: 16mph
Humidity: 76%   Direction: 220°SW
Pressure: 29.77"   Gusts: NA
Location:  58.01°N, 3.85°W
Report Text: EGQK 210550Z AUTO 22014KT 9999 BKN100/// 09/05 Q1008
Loading
Personal Weather Stations






























Interactive Weather Map New forecast layout! Learn more

10-Day Weather Forecast

Advertisements
Track Severe Weather on mobile